Time,TemperatureF,DewpointF,PressureIn,WindDirection,WindDirectionDegrees,WindSpeedMPH,WindSpeedGustMPH,Humidity,HourlyPrecipIn,Conditions,Clouds,dailyrainin,SolarRadiationWatts/m^2,SoftwareType,DateUTC
2013-11-14 00:01:00,43.0,43.0,-100.00,SSE,164,0.0,3.0,100,0.00,,,0.00,0.000000,,2013-11-14 08:01:00,
2013-11-14 00:42:00,42.0,42.0,-100.00,ESE,106,0.0,4.0,100,0.00,,,0.00,0.000000,,2013-11-14 08:42:00,
2013-11-14 00:53:00,42.0,42.0,-100.00,ESE,106,0.0,4.0,100,0.00,,,0.00,0.000000,,2013-11-14 08:53:00,
2013-11-14 01:02:00,42.0,42.0,-100.00,ESE,106,0.0,4.0,100,0.00,,,0.00,0.000000,,2013-11-14 09:02:00,
2013-11-14 01:43:00,42.0,42.0,-100.00,ENE,59,0.0,4.0,100,0.00,,,0.00,0.000000,,2013-11-14 09:43:00,
2013-11-14 01:53:00,42.0,42.0,-100.00,ENE,59,0.0,4.0,100,0.00,,,0.00,0.000000,,2013-11-14 09:53:00,
2013-11-14 02:03:00,42.0,42.0,-100.00,ENE,59,0.0,4.0,100,0.00,,,0.00,0.000000,,2013-11-14 10:03:00,
2013-11-14 02:42:00,42.0,42.0,-100.00,NE,34,0.0,4.0,100,0.00,,,0.00,0.000000,,2013-11-14 10:42:00,
2013-11-14 02:52:00,42.0,42.0,-100.00,NE,34,0.0,4.0,100,0.00,,,0.00,0.000000,,2013-11-14 10:52:00,
2013-11-14 03:01:00,42.0,42.0,-100.00,NE,34,0.0,4.0,100,0.00,,,0.00,0.000000,,2013-11-14 11:01:00,
2013-11-14 03:42:00,40.0,40.0,-100.00,ENE,59,1.0,4.0,100,0.00,,,0.00,0.000000,,2013-11-14 11:42:00,
2013-11-14 03:52:00,40.0,40.0,-100.00,ENE,59,1.0,4.0,100,0.00,,,0.00,0.000000,,2013-11-14 11:52:00,
2013-11-14 04:02:00,40.0,40.0,-100.00,ENE,59,1.0,4.0,100,0.00,,,0.00,0.000000,,2013-11-14 12:02:00,
2013-11-14 04:22:00,41.0,41.0,-100.00,ENE,62,2.0,6.0,100,0.00,,,-99.99,0.000000,,2013-11-14 12:22:00,
2013-11-14 04:32:00,41.0,41.0,-100.00,ENE,62,2.0,6.0,100,0.00,,,-99.99,0.000000,,2013-11-14 12:32:00,
2013-11-14 04:42:00,41.0,41.0,-100.00,ENE,62,2.0,6.0,100,0.00,,,-99.99,0.000000,,2013-11-14 12:42:00,
2013-11-14 04:52:00,41.0,41.0,-100.00,ENE,62,2.0,6.0,100,0.00,,,-99.99,0.000000,,2013-11-14 12:52:00,
2013-11-14 05:01:00,41.0,41.0,-100.00,ENE,62,2.0,6.0,100,0.00,,,-99.99,0.000000,,2013-11-14 13:01:00,
2013-11-14 05:42:00,41.0,41.0,-100.00,NE,41,1.0,5.0,100,0.00,,,0.00,0.000000,,2013-11-14 13:42:00,
2013-11-14 05:52:00,41.0,41.0,-100.00,NE,41,1.0,5.0,100,0.00,,,0.00,0.000000,,2013-11-14 13:52:00,
2013-11-14 06:02:00,41.0,41.0,-100.00,NE,41,1.0,5.0,100,0.00,,,0.00,0.000000,,2013-11-14 14:02:00,
2013-11-14 06:42:00,42.0,42.0,-100.00,NE,56,0.0,5.0,100,0.00,,,0.00,0.000000,,2013-11-14 14:42:00,
2013-11-14 06:52:00,42.0,42.0,-100.00,NE,56,0.0,5.0,100,0.00,,,0.00,0.000000,,2013-11-14 14:52:00,
2013-11-14 07:02:00,42.0,42.0,-100.00,NE,56,0.0,5.0,100,0.00,,,0.00,0.000000,,2013-11-14 15:02:00,
2013-11-14 07:43:00,41.0,41.0,-100.00,ESE,104,0.0,5.0,100,0.00,,,0.00,0.000000,,2013-11-14 15:43:00,
2013-11-14 07:53:00,41.0,41.0,-100.00,ESE,104,0.0,5.0,100,0.00,,,0.00,0.000000,,2013-11-14 15:53:00,
2013-11-14 08:03:00,41.0,41.0,-100.00,ESE,104,0.0,5.0,100,0.00,,,0.00,0.000000,,2013-11-14 16:03:00,
2013-11-14 08:42:00,43.0,43.0,-100.00,NNE,18,0.0,5.0,100,0.00,,,0.00,23.000000,,2013-11-14 16:42:00,
2013-11-14 08:52:00,43.0,43.0,-100.00,NNE,18,0.0,5.0,100,0.00,,,0.00,23.000000,,2013-11-14 16:52:00,
2013-11-14 09:02:00,43.0,43.0,-100.00,NNE,18,0.0,5.0,100,0.00,,,0.00,23.000000,,2013-11-14 17:02:00,
2013-11-14 09:42:00,44.0,44.0,-100.00,ESE,104,0.0,5.0,100,0.00,,,0.00,104.000000,,2013-11-14 17:42:00,
2013-11-14 09:52:00,44.0,44.0,-100.00,ESE,104,0.0,5.0,100,0.00,,,0.00,104.000000,,2013-11-14 17:52:00,
2013-11-14 10:02:00,44.0,44.0,-100.00,ESE,104,0.0,5.0,100,0.00,,,0.00,104.000000,,2013-11-14 18:02:00,
2013-11-14 10:42:00,49.0,49.0,-100.00,NE,39,0.0,4.0,100,0.00,,,0.00,223.000000,,2013-11-14 18:42:00,
2013-11-14 10:52:00,49.0,49.0,-100.00,NE,39,0.0,4.0,100,0.00,,,0.00,223.000000,,2013-11-14 18:52:00,
2013-11-14 11:01:00,49.0,49.0,-100.00,NE,39,0.0,4.0,100,0.00,,,0.00,223.000000,,2013-11-14 19:01:00,
2013-11-14 11:42:00,52.0,52.0,-100.00,South,181,0.0,4.0,100,0.00,,,0.00,283.000000,,2013-11-14 19:42:00,
2013-11-14 11:52:00,52.0,52.0,-100.00,South,181,0.0,4.0,100,0.00,,,0.00,283.000000,,2013-11-14 19:52:00,
2013-11-14 12:01:00,52.0,52.0,-100.00,South,181,0.0,4.0,100,0.00,,,0.00,283.000000,,2013-11-14 20:01:00,
2013-11-14 12:42:00,50.0,50.0,-100.00,SSW,209,1.0,5.0,100,0.00,,,0.00,162.000000,,2013-11-14 20:42:00,
2013-11-14 12:52:00,50.0,50.0,-100.00,SSW,209,1.0,5.0,100,0.00,,,0.00,162.000000,,2013-11-14 20:52:00,
2013-11-14 13:02:00,50.0,50.0,-100.00,SSW,209,1.0,5.0,100,0.00,,,0.00,162.000000,,2013-11-14 21:02:00,
2013-11-14 13:43:00,51.0,49.0,-100.00,SW,229,2.0,7.0,93,0.00,,,0.00,221.000000,,2013-11-14 21:43:00,
2013-11-14 13:53:00,51.0,49.0,-100.00,SW,229,2.0,7.0,93,0.00,,,0.00,221.000000,,2013-11-14 21:53:00,
2013-11-14 14:03:00,51.0,49.0,-100.00,SW,229,2.0,7.0,93,0.00,,,0.00,221.000000,,2013-11-14 22:03:00,
2013-11-14 14:43:00,52.0,50.0,-100.00,SSW,212,2.0,5.0,92,0.00,,,0.00,149.000000,,2013-11-14 22:43:00,
2013-11-14 14:53:00,52.0,50.0,-100.00,SSW,212,2.0,5.0,92,0.00,,,0.00,149.000000,,2013-11-14 22:53:00,
2013-11-14 15:02:00,52.0,50.0,-100.00,SSW,212,2.0,5.0,92,0.00,,,0.00,149.000000,,2013-11-14 23:02:00,
2013-11-14 15:43:00,49.0,49.0,-100.00,SW,216,0.0,6.0,99,0.01,,,0.01,72.000000,,2013-11-14 23:43:00,
2013-11-14 15:52:00,49.0,49.0,-100.00,SW,216,0.0,6.0,99,0.01,,,0.01,72.000000,,2013-11-14 23:52:00,
2013-11-14 16:01:00,49.0,49.0,-100.00,SW,216,0.0,6.0,99,0.01,,,0.01,72.000000,,2013-11-15 00:01:00,
2013-11-14 16:42:00,50.0,50.0,-100.00,SSE,168,2.0,4.0,100,0.00,,,0.01,36.000000,,2013-11-15 00:42:00,
2013-11-14 16:52:00,50.0,50.0,-100.00,SSE,168,2.0,4.0,100,0.00,,,0.01,36.000000,,2013-11-15 00:52:00,
2013-11-14 17:01:00,50.0,50.0,-100.00,SSE,168,2.0,4.0,100,0.00,,,0.01,36.000000,,2013-11-15 01:01:00,
2013-11-14 17:42:00,49.0,49.0,-100.00,South,173,2.0,4.0,100,0.01,,,0.02,10.000000,,2013-11-15 01:42:00,
2013-11-14 17:52:00,49.0,49.0,-100.00,South,173,2.0,4.0,100,0.01,,,0.02,10.000000,,2013-11-15 01:52:00,
2013-11-14 18:02:00,49.0,49.0,-100.00,South,173,2.0,4.0,100,0.01,,,0.02,10.000000,,2013-11-15 02:02:00,
2013-11-14 18:42:00,47.0,47.0,-100.00,SSE,158,2.0,4.0,100,0.02,,,-99.99,0.000000,,2013-11-15 02:42:00,
2013-11-14 18:52:00,47.0,47.0,-100.00,SSE,158,2.0,4.0,100,0.02,,,-99.99,0.000000,,2013-11-15 02:52:00,
2013-11-14 19:02:00,47.0,47.0,-100.00,SSE,158,2.0,4.0,100,0.02,,,-99.99,0.000000,,2013-11-15 03:02:00,
2013-11-14 19:04:00,47.0,47.0,-100.00,SSE,156,1.0,5.0,100,0.04,,,0.08,0.000000,,2013-11-15 03:04:00,
2013-11-14 19:44:00,47.0,47.0,-100.00,SSE,156,1.0,5.0,100,0.04,,,0.08,0.000000,,2013-11-15 03:44:00,
2013-11-14 19:54:00,47.0,47.0,-100.00,SSE,156,1.0,5.0,100,0.04,,,0.08,0.000000,,2013-11-15 03:54:00,
2013-11-14 20:43:00,48.0,48.0,-100.00,SSE,152,2.0,5.0,100,0.09,,,0.17,0.000000,,2013-11-15 04:43:00,
2013-11-14 20:53:00,48.0,48.0,-100.00,SSE,152,2.0,5.0,100,0.09,,,0.17,0.000000,,2013-11-15 04:53:00,
2013-11-14 21:03:00,48.0,48.0,-100.00,SSE,152,2.0,5.0,100,0.09,,,0.17,0.000000,,2013-11-15 05:03:00,
2013-11-14 21:44:00,48.0,48.0,-100.00,ESE,105,0.0,4.0,100,0.04,,,0.21,0.000000,,2013-11-15 05:44:00,
2013-11-14 21:53:00,48.0,48.0,-100.00,ESE,105,0.0,4.0,100,0.04,,,0.21,0.000000,,2013-11-15 05:53:00,
2013-11-14 22:02:00,48.0,48.0,-100.00,ESE,105,0.0,4.0,100,0.04,,,0.21,0.000000,,2013-11-15 06:02:00,
2013-11-14 22:43:00,47.0,47.0,-100.00,North,351,0.0,3.0,100,0.00,,,0.21,0.000000,,2013-11-15 06:43:00,
2013-11-14 22:53:00,47.0,47.0,-100.00,North,351,0.0,3.0,100,0.00,,,0.21,0.000000,,2013-11-15 06:53:00,
2013-11-14 23:01:00,47.0,47.0,-100.00,North,351,0.0,3.0,100,0.00,,,0.21,0.000000,,2013-11-15 07:01:00,
2013-11-14 23:42:00,46.0,46.0,-100.00,ENE,73,0.0,3.0,100,0.00,,,0.21,0.000000,,2013-11-15 07:42:00,
2013-11-14 23:52:00,46.0,46.0,-100.00,ENE,73,0.0,3.0,100,0.00,,,0.21,0.000000,,2013-11-15 07:52:00,